Time;durP1;ratioP1;P1;durP2;ratioP2;P2;SDS_P1;SDS_P2;PMS_P1;PMS_P2;Temp;Humidity;BMP_temperature;BMP_pressure;BME280_temperature;BME280_humidity;BME280_pressure;Samples;Min_cycle;Max_cycle;Signal;HPM_P1;HPM_P2
2024/01/09 00:04:21;;;;;;;13.43;9.43;;;;;;;-2.97;41.14;100474.63;10465555;28;20234;-71
2024/01/09 00:09:23;;;;;;;10.93;9.13;;;;;;;-2.01;40.61;100310.34;10484868;28;20245;-71
2024/01/09 00:14:25;;;;;;;12.43;8.93;;;;;;;-3.31;41.53;100559.25;10483880;28;20322;-71
2024/01/09 00:19:26;;;;;;;13.37;9.77;;;;;;;-2.95;40.87;100469.31;10484587;28;20718;-71
2024/01/09 00:24:29;;;;;;;15.07;10.13;;;;;;;-2.81;40.64;100426.66;10483197;28;20756;-70
2024/01/09 00:29:32;;;;;;;12.20;9.77;;;;;;;-3.11;40.67;100555.66;10484716;28;20310;-71
2024/01/09 00:34:34;;;;;;;11.20;9.20;;;;;;;-3.43;41.49;100545.84;10465086;28;20280;-70
2024/01/09 00:39:35;;;;;;;12.37;9.97;;;;;;;-4.82;41.51;100874.28;10483706;28;20244;-70
2024/01/09 00:44:41;;;;;;;13.23;9.50;;;;;;;-2.60;39.84;100414.19;10463794;28;20243;-70
2024/01/09 00:49:46;;;;;;;11.37;9.07;;;;;;;-2.45;39.79;100418.59;10464878;28;20231;-72
2024/01/09 00:54:47;;;;;;;13.30;10.10;;;;;;;-3.51;41.11;100554.97;10476540;28;20588;-71
2024/01/09 00:59:49;;;;;;;12.00;9.63;;;;;;;-3.83;41.40;100634.06;10483110;28;20356;-71
2024/01/09 01:04:51;;;;;;;11.43;9.27;;;;;;;-3.38;40.23;100641.63;10481387;28;20654;-71
2024/01/09 01:09:53;;;;;;;13.20;10.17;;;;;;;-3.90;40.79;100770.41;10479373;28;20292;-70
2024/01/09 01:14:54;;;;;;;11.63;9.83;;;;;;;-2.54;39.88;100451.41;10482623;28;20245;-70
2024/01/09 01:19:56;;;;;;;17.13;10.17;;;;;;;-3.14;40.43;100559.25;10482213;28;20240;-71
2024/01/09 01:24:58;;;;;;;13.90;10.07;;;;;;;-2.71;39.94;100527.41;10482571;28;20325;-71
2024/01/09 01:29:59;;;;;;;11.83;9.87;;;;;;;-4.60;40.85;100924.81;10481986;28;20238;-71
2024/01/09 01:35:01;;;;;;;18.23;11.20;;;;;;;-3.42;40.33;100617.34;10480938;28;20240;-71
2024/01/09 01:40:03;;;;;;;11.60;8.47;;;;;;;-1.52;38.57;100289.97;10480960;28;20233;-72
2024/01/09 01:45:16;;;;;;;13.10;9.83;;;;;;;-3.55;40.84;100658.09;10478940;28;20245;-71
2024/01/09 01:50:17;;;;;;;13.90;9.30;;;;;;;-2.08;39.83;100305.56;10477256;28;20230;-71
2024/01/09 01:55:24;;;;;;;13.20;9.37;;;;;;;-3.16;40.11;100597.75;10475369;28;20660;-72
2024/01/09 02:00:27;;;;;;;13.33;9.77;;;;;;;-3.01;40.09;100516.75;10461716;28;20230;-71
2024/01/09 02:05:30;;;;;;;13.97;9.43;;;;;;;-2.75;39.65;100497.09;10479031;28;20284;-71
2024/01/09 02:10:32;;;;;;;13.07;9.73;;;;;;;-3.41;40.73;100592.88;10480031;28;20242;-71
2024/01/09 02:15:35;;;;;;;13.30;9.20;;;;;;;-2.95;40.07;100498.13;10480888;28;20288;-71
2024/01/09 02:20:36;;;;;;;15.20;11.50;;;;;;;-3.45;40.17;100596.56;10480157;28;20633;-71
2024/01/09 02:25:38;;;;;;;13.87;9.97;;;;;;;-3.76;39.92;100720.94;10479334;28;20245;-71
2024/01/09 02:30:41;;;;;;;13.70;9.77;;;;;;;-3.46;40.77;100551.22;10479063;28;20249;-71
2024/01/09 02:35:43;;;;;;;12.27;9.90;;;;;;;-4.28;40.90;100794.66;10473733;28;20230;-71
2024/01/09 02:40:44;;;;;;;12.63;9.43;;;;;;;-3.25;40.19;100496.97;10461445;28;20259;-70
2024/01/09 02:45:46;;;;;;;11.43;8.87;;;;;;;-3.05;39.43;100519.53;10477473;28;20242;-71
2024/01/09 02:50:48;;;;;;;13.00;9.00;;;;;;;-2.32;39.33;100324.41;10478480;28;20343;-71
2024/01/09 02:55:49;;;;;;;13.53;10.23;;;;;;;-3.62;40.23;100555.50;10474478;28;20238;-69
2024/01/09 03:00:51;;;;;;;13.40;9.77;;;;;;;-3.36;39.71;100520.22;10478109;28;20335;-72
2024/01/09 03:05:52;;;;;;;15.13;10.40;;;;;;;-4.44;40.60;100770.91;10477158;28;20240;-71
2024/01/09 03:10:54;;;;;;;13.73;10.03;;;;;;;-3.49;40.34;100513.88;10479521;28;20337;-71
2024/01/09 03:15:56;;;;;;;12.97;8.97;;;;;;;-4.98;40.68;100860.97;10479394;28;20261;-72
2024/01/09 03:20:58;;;;;;;14.63;10.10;;;;;;;-3.01;39.42;100478.34;10481005;28;20241;-71
2024/01/09 03:25:59;;;;;;;10.33;8.77;;;;;;;-4.15;40.40;100672.94;10463304;28;20683;-70
2024/01/09 03:31:01;;;;;;;10.13;8.50;;;;;;;-3.66;39.95;100583.56;10459866;28;20284;-71
2024/01/09 03:36:05;;;;;;;14.40;10.60;;;;;;;-3.52;39.87;100533.22;10478891;28;20381;-71
2024/01/09 03:41:07;;;;;;;11.07;9.00;;;;;;;-3.46;39.79;100564.28;10478463;28;20236;-70
2024/01/09 03:46:09;;;;;;;15.47;9.87;;;;;;;-4.05;40.10;100696.94;10476798;28;20716;-71
2024/01/09 03:51:10;;;;;;;16.43;9.13;;;;;;;-3.52;39.64;100559.38;10477332;28;21000;-71
2024/01/09 03:56:12;;;;;;;14.53;9.83;;;;;;;-4.10;40.23;100661.47;10472513;28;20775;-70
2024/01/09 04:01:14;;;;;;;16.00;9.73;;;;;;;-2.97;38.76;100471.16;10459032;28;20726;-71
2024/01/09 04:06:15;;;;;;;11.73;9.60;;;;;;;-3.08;38.91;100519.66;10475032;28;20250;-71
2024/01/09 04:11:18;;;;;;;13.57;9.47;;;;;;;-3.14;39.19;100493.78;10481819;28;20238;-74
2024/01/09 04:16:19;;;;;;;12.23;9.80;;;;;;;-2.00;38.54;100203.63;10484852;28;20316;-73
2024/01/09 04:21:21;;;;;;;13.60;9.10;;;;;;;-3.06;39.02;100451.50;10485050;28;20403;-73
2024/01/09 04:26:24;;;;;;;12.47;9.17;;;;;;;-3.18;38.95;100492.25;10483233;28;20803;-73
2024/01/09 04:31:26;;;;;;;9.63;7.40;;;;;;;-2.63;38.26;100448.41;10484334;28;20345;-73
2024/01/09 04:36:28;;;;;;;12.03;8.73;;;;;;;-3.07;39.46;100411.38;10489748;28;20245;-79
2024/01/09 04:41:30;;;;;;;10.67;9.13;;;;;;;-2.81;38.85;100408.31;10485431;28;20241;-75
2024/01/09 04:46:32;;;;;;;9.57;7.30;;;;;;;-2.61;37.97;100450.03;10482409;28;20664;-75
2024/01/09 04:51:33;;;;;;;14.33;10.27;;;;;;;-3.32;38.31;100642.16;10485292;28;20230;-78
2024/01/09 04:56:35;;;;;;;12.77;9.90;;;;;;;-2.25;38.65;100261.97;10488928;28;20245;-73
2024/01/09 05:01:37;;;;;;;13.57;10.13;;;;;;;-3.44;39.52;100530.19;10482068;28;20242;-73
2024/01/09 05:06:38;;;;;;;11.73;8.97;;;;;;;-3.92;39.63;100707.72;10480301;28;20321;-74
2024/01/09 05:11:40;;;;;;;11.87;8.63;;;;;;;-2.38;38.28;100351.78;10465490;28;20234;-74
2024/01/09 05:16:42;;;;;;;11.57;8.33;;;;;;;-2.37;38.63;100308.09;10482845;28;20965;-73
2024/01/09 05:21:44;;;;;;;12.03;8.23;;;;;;;-3.08;38.34;100593.00;10480558;28;20244;-73
2024/01/09 05:26:45;;;;;;;14.30;9.30;;;;;;;-2.59;37.89;100504.97;10481873;28;20238;-76
2024/01/09 05:31:47;;;;;;;11.63;8.07;;;;;;;-3.04;38.44;100583.25;10481752;28;20271;-74
2024/01/09 05:36:49;;;;;;;12.00;10.37;;;;;;;-3.32;38.97;100554.91;10479537;28;20303;-74
2024/01/09 05:41:50;;;;;;;10.17;8.83;;;;;;;-3.04;38.83;100516.00;10482040;28;20676;-74
2024/01/09 05:46:53;;;;;;;16.77;9.83;;;;;;;-3.39;38.94;100616.34;10479316;28;20261;-76
2024/01/09 05:51:55;;;;;;;13.77;10.17;;;;;;;-3.14;39.23;100441.44;10481576;28;20242;-75
2024/01/09 05:56:57;;;;;;;9.27;6.70;;;;;;;-4.05;39.78;100685.63;10480807;28;20326;-74
2024/01/09 06:01:59;;;;;;;10.70;8.67;;;;;;;-3.01;39.00;100470.47;10481067;28;20254;-74
2024/01/09 06:07:01;;;;;;;13.10;10.37;;;;;;;-4.59;39.57;100876.03;10481032;28;20243;-75
2024/01/09 06:12:03;;;;;;;9.40;8.13;;;;;;;-3.15;39.12;100454.59;10480633;28;20238;-75
2024/01/09 06:17:05;;;;;;;9.83;7.93;;;;;;;-3.63;39.13;100575.56;10460661;28;20610;-74
2024/01/09 06:22:07;;;;;;;14.07;8.70;;;;;;;-2.62;38.47;100380.22;10479560;28;20235;-74
2024/01/09 06:27:09;;;;;;;10.33;8.13;;;;;;;-3.55;38.85;100631.91;10478554;28;20287;-74
2024/01/09 06:32:10;;;;;;;14.87;9.30;;;;;;;-2.64;38.88;100302.59;10478310;28;20511;-75
2024/01/09 06:37:12;;;;;;;12.40;9.33;;;;;;;-4.28;39.21;100772.88;10479122;28;20324;-74
2024/01/09 06:42:14;;;;;;;10.30;8.43;;;;;;;-1.92;37.33;100371.91;10479878;28;20273;-76
2024/01/09 06:47:15;;;;;;;12.07;8.80;;;;;;;-3.18;38.73;100518.44;10479260;28;20617;-74
2024/01/09 06:52:17;;;;;;;15.23;9.50;;;;;;;-4.99;39.44;100974.13;10477511;28;20227;-73
2024/01/09 06:57:19;;;;;;;13.00;8.47;;;;;;;-3.48;39.41;100571.38;10473567;28;20236;-74
2024/01/09 07:02:21;;;;;;;13.33;8.73;;;;;;;-4.26;38.88;100828.53;10479220;28;20323;-74
2024/01/09 07:07:23;;;;;;;12.07;8.73;;;;;;;-2.90;38.41;100454.19;10479663;28;20234;-74
2024/01/09 07:12:35;;;;;;;13.10;9.87;;;;;;;-3.06;38.51;100488.19;10480945;28;20329;-73
2024/01/09 07:17:36;;;;;;;13.73;9.70;;;;;;;-3.56;39.01;100625.00;10480376;28;20239;-74
2024/01/09 07:22:38;;;;;;;11.57;8.70;;;;;;;-3.15;38.37;100565.44;10474092;28;20591;-74
2024/01/09 07:27:42;;;;;;;13.03;9.03;;;;;;;-2.21;37.78;100355.22;10477879;28;20227;-76
2024/01/09 07:32:43;;;;;;;13.73;8.40;;;;;;;-2.97;38.34;100545.34;10479510;28;20235;-73
2024/01/09 07:37:45;;;;;;;15.33;9.73;;;;;;;-3.24;38.40;100592.88;10478510;28;20413;-74
2024/01/09 07:42:47;;;;;;;11.33;8.97;;;;;;;-3.58;39.02;100592.84;10479060;28;20436;-73
2024/01/09 07:48:00;;;;;;;11.13;8.43;;;;;;;-3.85;38.72;100743.13;10486679;28;20677;-74
2024/01/09 07:53:03;;;;;;;13.50;9.60;;;;;;;-3.15;38.30;100575.91;10485881;28;20314;-75
2024/01/09 07:58:06;;;;;;;12.00;9.23;;;;;;;-3.58;38.33;100702.72;10485506;28;20210;-74
2024/01/09 08:03:08;;;;;;;13.50;9.40;;;;;;;-3.55;38.01;100750.53;10467509;28;20359;-74
2024/01/09 08:08:10;;;;;;;11.90;8.87;;;;;;;-3.35;38.45;100634.47;10485837;28;20622;-73
2024/01/09 08:13:11;;;;;;;10.43;9.00;;;;;;;-3.55;38.41;100718.25;10486577;28;20245;-74
2024/01/09 08:18:13;;;;;;;11.23;7.93;;;;;;;-2.37;38.33;100413.78;10484994;28;20249;-74
2024/01/09 08:23:16;;;;;;;10.40;9.30;;;;;;;-2.40;37.79;100455.03;10480560;28;20646;-73
2024/01/09 08:28:18;;;;;;;12.70;9.17;;;;;;;-3.67;38.43;100793.81;10483728;28;20268;-74
2024/01/09 08:33:19;;;;;;;10.17;8.03;;;;;;;-2.08;37.52;100394.72;10485983;28;20607;-74
2024/01/09 08:38:26;;;;;;;13.80;8.53;;;;;;;-2.77;37.75;100645.66;10483924;28;20245;-74
2024/01/09 08:43:28;;;;;;;10.70;8.47;;;;;;;-2.35;37.62;100469.59;10483494;28;20320;-74
2024/01/09 08:48:30;;;;;;;8.23;7.17;;;;;;;-2.18;37.63;100458.16;10466886;28;20265;-74
2024/01/09 08:53:32;;;;;;;11.43;8.60;;;;;;;-2.60;37.44;100650.06;10484509;28;20663;-74
2024/01/09 08:58:35;;;;;;;10.73;8.27;;;;;;;-2.96;38.15;100667.53;10478473;28;20624;-74
2024/01/09 09:03:37;;;;;;;12.50;9.07;;;;;;;-2.21;37.35;100541.41;10483268;28;20267;-75
2024/01/09 09:08:39;;;;;;;12.37;8.93;;;;;;;-3.09;37.72;100747.56;10478663;28;20254;-73
2024/01/09 09:13:42;;;;;;;9.77;8.77;;;;;;;-2.78;37.40;100705.03;10483681;28;20622;-74
2024/01/09 09:18:44;;;;;;;14.53;9.00;;;;;;;-3.72;37.91;100921.34;10481959;28;20320;-74
2024/01/09 09:23:47;;;;;;;14.27;7.97;;;;;;;-2.57;37.98;100564.25;10481297;28;20760;-74
2024/01/09 09:28:50;;;;;;;10.30;8.43;;;;;;;-2.24;37.26;100626.31;10482550;28;20237;-74
2024/01/09 09:33:55;;;;;;;10.17;8.10;;;;;;;-2.39;37.82;100535.38;10465452;28;20265;-74
2024/01/09 09:38:58;;;;;;;12.37;8.53;;;;;;;-2.05;36.88;100672.56;10481421;28;20241;-74
2024/01/09 09:44:06;;;;;;;14.43;9.07;;;;;;;-1.79;36.77;100484.88;10481822;28;20240;-73
2024/01/09 09:49:09;;;;;;;11.43;8.77;;;;;;;-1.42;36.10;100544.00;10480647;28;20234;-74
2024/01/09 09:54:13;;;;;;;11.83;8.60;;;;;;;-1.80;36.79;100564.50;10480859;28;20249;-75
2024/01/09 09:59:15;;;;;;;14.03;9.30;;;;;;;-1.77;36.31;100698.19;10481256;28;20365;-74
2024/01/09 10:04:46;;;;;;;12.17;8.77;;;;;;;-1.59;36.79;100518.69;10476829;28;20767;-74
2024/01/09 10:09:53;;;;;;;13.10;8.87;;;;;;;-0.83;35.78;100464.38;10475904;28;20238;-74
2024/01/09 10:15:08;;;;;;;11.30;8.80;;;;;;;-2.07;37.05;100572.13;10478813;28;20276;-71
2024/01/09 10:20:12;;;;;;;12.13;8.37;;;;;;;-1.55;35.96;100688.25;10479118;28;20235;-72
2024/01/09 10:25:17;;;;;;;8.93;7.63;;;;;;;-2.72;37.10;100753.69;10480516;28;20452;-72
2024/01/09 10:30:20;;;;;;;14.40;9.07;;;;;;;-2.40;37.08;100677.88;10478775;28;20572;-72
2024/01/09 10:35:22;;;;;;;11.50;8.47;;;;;;;-1.22;36.17;100443.03;10480000;28;20233;-71
2024/01/09 10:40:26;;;;;;;10.50;8.83;;;;;;;-1.38;36.41;100591.91;10480684;28;20265;-71
2024/01/09 10:45:27;;;;;;;12.40;8.70;;;;;;;-1.04;36.03;100477.88;10480259;28;20237;-72
2024/01/09 10:50:29;;;;;;;12.20;8.57;;;;;;;-1.01;35.90;100514.47;10481108;28;20318;-70
2024/01/09 10:55:32;;;;;;;11.83;8.53;;;;;;;-1.11;35.90;100529.09;10484297;28;20233;-71
2024/01/09 11:06:18;;;;;;;12.73;9.03;;;;;;;-3.27;37.65;100655.88;10588127;27;20730;-71
2024/01/09 11:11:22;;;;;;;11.23;7.73;;;;;;;-1.89;37.12;100345.50;10547647;27;20246;-71
2024/01/09 11:16:25;;;;;;;11.83;8.07;;;;;;;-2.33;36.50;100574.38;10526515;28;20271;-70
2024/01/09 11:21:27;;;;;;;12.90;8.77;;;;;;;-2.22;37.25;100480.25;10524238;28;20245;-70
2024/01/09 11:26:32;;;;;;;14.20;9.10;;;;;;;-1.11;36.56;100302.31;10528249;28;20331;-70
2024/01/09 11:31:35;;;;;;;11.97;9.27;;;;;;;-2.26;37.45;100535.56;10521295;28;20238;-71
2024/01/09 11:36:39;;;;;;;13.70;10.07;;;;;;;-2.93;37.73;100637.69;10538450;28;20295;-71
2024/01/09 11:41:45;;;;;;;12.43;8.67;;;;;;;-2.03;36.94;100529.91;10536679;28;20319;-71
2024/01/09 11:46:47;;;;;;;12.07;8.60;;;;;;;-2.45;37.12;100581.09;10533340;28;20240;-71
2024/01/09 11:51:49;;;;;;;13.13;8.77;;;;;;;-2.87;37.16;100710.75;10529860;28;20246;-71
2024/01/09 11:56:51;;;;;;;12.00;7.80;;;;;;;-1.41;36.04;100406.53;10526570;28;20828;-70
2024/01/09 12:01:53;;;;;;;13.53;9.90;;;;;;;-0.67;36.35;100228.56;10531434;28;20240;-71
2024/01/09 12:06:55;;;;;;;10.80;8.20;;;;;;;-1.19;36.25;100379.81;10517075;28;20288;-71
2024/01/09 12:11:57;;;;;;;11.67;8.90;;;;;;;-0.61;35.35;100433.19;10537200;27;20252;-70
2024/01/09 12:16:59;;;;;;;12.70;8.97;;;;;;;-1.53;36.27;100583.16;10512844;28;20705;-71
2024/01/09 12:22:01;;;;;;;14.43;9.10;;;;;;;-0.48;36.15;100291.31;10511941;28;20709;-71
2024/01/09 12:27:03;;;;;;;13.67;10.17;;;;;;;-0.70;35.55;100432.94;10505918;28;20611;-71
2024/01/09 12:32:06;;;;;;;9.97;8.20;;;;;;;-1.63;36.47;100560.94;10504293;28;20746;-71
2024/01/09 12:37:08;;;;;;;11.53;9.07;;;;;;;-0.64;35.67;100390.47;10517301;28;20719;-71
2024/01/09 12:42:13;;;;;;;15.30;9.13;;;;;;;-0.56;35.26;100445.25;10501534;28;20262;-71
2024/01/09 12:47:15;;;;;;;12.27;8.77;;;;;;;0.50;34.88;100212.75;10508632;28;20230;-71
2024/01/09 12:52:21;;;;;;;13.17;9.47;;;;;;;-0.43;35.49;100389.16;10481513;28;20229;-71
2024/01/09 12:57:22;;;;;;;13.37;9.50;;;;;;;-1.43;35.98;100586.94;10515041;28;20318;-70
2024/01/09 13:02:24;;;;;;;11.57;8.47;;;;;;;-0.80;35.69;100438.75;10498773;28;20585;-69
2024/01/09 13:07:26;;;;;;;10.33;7.67;;;;;;;-1.01;35.44;100579.28;10502047;28;20685;-71
2024/01/09 13:12:28;;;;;;;10.53;8.47;;;;;;;-0.32;34.81;100527.00;10505594;28;20778;-71
2024/01/09 13:17:29;;;;;;;41.30;24.90;;;;;;;-0.75;35.36;100519.94;10508667;28;20749;-70
2024/01/09 13:22:31;;;;;;;14.97;11.20;;;;;;;-0.93;36.08;100521.06;10498085;28;20237;-71
2024/01/09 13:27:36;;;;;;;16.90;12.07;;;;;;;-0.20;35.28;100393.88;10498272;28;20346;-69
2024/01/09 13:32:38;;;;;;;8.73;7.60;;;;;;;-1.22;35.03;100734.56;10503365;28;20237;-70
2024/01/09 13:37:39;;;;;;;12.73;9.33;;;;;;;-0.48;35.04;100506.94;10498892;28;20601;-70
2024/01/09 13:42:41;;;;;;;12.80;9.53;;;;;;;-1.11;34.91;100654.31;10502114;28;20246;-70
2024/01/09 13:47:43;;;;;;;13.47;8.77;;;;;;;1.08;33.92;100403.75;10492602;28;20604;-70
2024/01/09 13:52:45;;;;;;;15.63;9.90;;;;;;;0.83;34.54;100379.94;10502968;28;20239;-70
2024/01/09 13:57:48;;;;;;;28.37;23.10;;;;;;;-0.72;35.32;100614.41;10498723;28;20307;-70
2024/01/09 14:02:50;;;;;;;14.23;12.13;;;;;;;1.13;33.43;100456.97;10496118;28;20277;-68
2024/01/09 14:07:52;;;;;;;18.13;11.60;;;;;;;-0.13;34.86;100595.97;10484274;28;20203;-70
2024/01/09 14:12:53;;;;;;;15.63;12.17;;;;;;;0.47;34.14;100572.91;10500166;28;20242;-70
2024/01/09 14:17:55;;;;;;;16.30;10.93;;;;;;;0.28;34.02;100575.88;10478228;28;20557;-70
2024/01/09 14:23:00;;;;;;;13.10;8.73;;;;;;;0.12;34.16;100568.09;10503409;28;20277;-69
2024/01/09 14:28:02;;;;;;;12.83;10.03;;;;;;;-0.14;34.33;100638.16;10508189;28;20233;-72
2024/01/09 14:33:04;;;;;;;12.07;10.03;;;;;;;0.64;33.78;100477.81;10500753;28;20231;-72
2024/01/09 14:38:06;;;;;;;16.80;9.93;;;;;;;2.82;32.33;100396.28;10480951;28;20215;-69
2024/01/09 14:43:07;;;;;;;17.03;10.10;;;;;;;0.81;33.86;100578.59;10458720;28;20582;-69
2024/01/09 14:48:09;;;;;;;12.47;8.70;;;;;;;0.79;32.86;100714.88;10494440;28;20235;-72
2024/01/09 14:53:11;;;;;;;16.37;9.90;;;;;;;1.57;33.01;100572.63;10488228;28;20758;-69
2024/01/09 14:58:13;;;;;;;18.07;11.00;;;;;;;1.57;33.13;100593.72;10476612;28;20338;-72
2024/01/09 15:03:15;;;;;;;15.40;11.00;;;;;;;0.06;34.44;100716.72;10477479;28;20955;-70
2024/01/09 15:08:18;;;;;;;10.27;7.37;;;;;;;1.60;32.91;100590.84;10476343;28;20312;-70
2024/01/09 15:13:20;;;;;;;18.03;11.00;;;;;;;2.11;32.97;100430.66;10478867;28;20239;-71
2024/01/09 15:18:22;;;;;;;13.57;8.83;;;;;;;0.58;33.82;100665.25;10477853;28;20233;-72
2024/01/09 15:23:24;;;;;;;11.30;8.00;;;;;;;0.56;33.91;100677.69;10479164;28;20234;-71
2024/01/09 15:28:27;;;;;;;11.80;8.43;;;;;;;0.97;33.53;100628.53;10479404;28;20243;-72
2024/01/09 15:33:30;;;;;;;9.77;7.27;;;;;;;1.36;32.92;100513.44;10478455;28;20555;-72
2024/01/09 15:38:34;;;;;;;13.13;8.13;;;;;;;2.70;31.59;100435.06;10475238;28;20262;-71
2024/01/09 15:43:35;;;;;;;14.17;8.33;;;;;;;0.43;33.10;100795.28;10477758;28;20239;-73
2024/01/09 15:48:37;;;;;;;11.90;7.93;;;;;;;0.57;33.39;100716.25;10478278;28;20232;-72
2024/01/09 15:53:42;;;;;;;12.13;7.70;;;;;;;0.96;32.82;100642.63;10479602;28;20609;-73
2024/01/09 15:58:44;;;;;;;9.23;7.13;;;;;;;0.67;33.30;100662.03;10483417;28;20231;-72
2024/01/09 16:03:46;;;;;;;10.83;7.77;;;;;;;0.85;32.91;100670.53;10481748;28;20506;-71
2024/01/09 16:08:48;;;;;;;10.10;7.30;;;;;;;0.82;32.85;100577.66;10484349;28;20241;-73
2024/01/09 16:13:53;;;;;;;11.23;8.17;;;;;;;0.59;32.98;100637.94;10485780;28;20239;-74
2024/01/09 16:18:56;;;;;;;12.50;8.07;;;;;;;0.86;32.99;100597.59;10485341;28;20227;-76
2024/01/09 16:23:59;;;;;;;11.43;7.97;;;;;;;0.35;33.00;100705.38;10484074;28;20235;-77
2024/01/09 16:29:00;;;;;;;9.57;7.57;;;;;;;1.11;32.80;100524.78;10467729;28;20281;-73
2024/01/09 16:34:03;;;;;;;9.53;7.20;;;;;;;0.68;32.59;100662.88;10482827;28;20692;-73
2024/01/09 16:39:07;;;;;;;11.37;7.13;;;;;;;1.13;32.67;100559.78;10483544;28;20227;-73
2024/01/09 16:44:08;;;;;;;8.13;6.40;;;;;;;1.19;32.18;100647.22;10461957;28;20714;-73
2024/01/09 16:49:10;;;;;;;10.67;7.40;;;;;;;0.10;32.42;100864.78;10486160;28;20262;-73
2024/01/09 16:54:12;;;;;;;9.30;6.50;;;;;;;0.66;32.77;100660.34;10474653;28;20236;-75
2024/01/09 16:59:14;;;;;;;10.43;6.97;;;;;;;0.53;32.96;100619.06;10493527;28;20343;-76
2024/01/09 17:04:16;;;;;;;10.00;7.10;;;;;;;1.08;32.16;100638.34;10492903;28;20262;-74
2024/01/09 17:09:18;;;;;;;9.93;6.87;;;;;;;0.59;32.20;100693.28;10484787;28;20257;-74
2024/01/09 17:14:19;;;;;;;13.17;6.50;;;;;;;1.05;32.17;100573.47;10491305;28;20227;-73
2024/01/09 17:19:27;;;;;;;11.20;7.67;;;;;;;1.15;32.24;100564.03;10485130;28;20235;-72
2024/01/09 17:24:30;;;;;;;9.20;6.87;;;;;;;0.92;32.47;100601.63;10494052;28;20231;-75
2024/01/09 17:29:33;;;;;;;11.23;6.27;;;;;;;0.79;32.72;100612.13;10492806;28;20231;-82
2024/01/09 17:34:35;;;;;;;10.63;6.50;;;;;;;1.88;32.25;100429.75;10482420;28;20231;-76
2024/01/09 17:39:37;;;;;;;11.00;6.07;;;;;;;0.75;32.84;100642.22;10482957;28;20321;-73
2024/01/09 17:44:39;;;;;;;6.70;5.20;;;;;;;0.19;33.14;100831.81;10457162;28;20312;-73
2024/01/09 17:49:41;;;;;;;8.60;6.50;;;;;;;0.42;33.04;100701.41;10476265;28;20602;-73
2024/01/09 17:54:43;;;;;;;9.60;6.53;;;;;;;1.20;32.83;100540.84;10480079;28;20266;-72
2024/01/09 17:59:47;;;;;;;7.10;5.97;;;;;;;0.71;32.81;100694.28;10484373;28;20251;-73
2024/01/09 18:04:49;;;;;;;10.50;7.40;;;;;;;1.07;32.80;100534.72;10485467;28;20292;-73
2024/01/09 18:09:51;;;;;;;9.80;6.90;;;;;;;-0.27;32.90;100873.00;10485349;28;20314;-73
2024/01/09 18:14:53;;;;;;;7.80;5.77;;;;;;;0.82;32.49;100590.84;10488325;28;20485;-73
2024/01/09 18:19:54;;;;;;;8.70;6.03;;;;;;;0.43;32.58;100730.28;10488725;28;20730;-73
2024/01/09 18:24:56;;;;;;;13.57;8.13;;;;;;;1.04;32.22;100601.66;10467137;28;20453;-72
2024/01/09 18:29:58;;;;;;;33.20;17.57;;;;;;;0.59;32.19;100774.94;10482581;28;20234;-73
2024/01/09 18:34:59;;;;;;;29.77;16.97;;;;;;;0.14;33.09;100734.72;10481291;28;20231;-73
2024/01/09 18:40:05;;;;;;;7.53;5.60;;;;;;;0.70;32.80;100647.81;10480214;28;20227;-72
2024/01/09 18:45:07;;;;;;;8.93;6.57;;;;;;;1.84;31.59;100475.78;10480868;28;20610;-73
2024/01/09 18:50:10;;;;;;;7.37;6.33;;;;;;;0.66;32.02;100747.28;10480524;28;20687;-73
2024/01/09 18:55:12;;;;;;;11.17;5.90;;;;;;;1.78;31.42;100477.06;10482432;28;20227;-73
2024/01/09 19:00:14;;;;;;;8.57;6.40;;;;;;;1.49;31.81;100625.06;10478160;28;20237;-73
2024/01/09 19:05:15;;;;;;;8.47;5.73;;;;;;;2.23;31.00;100590.03;10481179;28;20235;-74
2024/01/09 19:10:17;;;;;;;8.53;6.30;;;;;;;1.51;31.88;100656.63;10480899;28;20223;-73
2024/01/09 19:15:19;;;;;;;8.27;6.83;;;;;;;1.29;32.10;100692.31;10477701;28;20242;-73
2024/01/09 19:20:23;;;;;;;11.13;7.13;;;;;;;1.15;32.06;100748.59;10483161;28;20285;-76
2024/01/09 19:25:25;;;;;;;9.07;6.50;;;;;;;0.73;32.20;100853.16;10472755;28;20241;-72
2024/01/09 19:30:26;;;;;;;8.30;6.80;;;;;;;-0.55;33.22;100989.44;10494997;28;20238;-71
2024/01/09 19:35:32;;;;;;;7.97;6.33;;;;;;;0.29;32.48;100810.13;10484919;28;20737;-74
2024/01/09 19:40:35;;;;;;;7.83;6.20;;;;;;;1.59;32.48;100530.28;10491368;28;20322;-77
2024/01/09 19:45:36;;;;;;;11.33;7.90;;;;;;;2.29;31.77;100516.47;10469564;28;20246;-76
2024/01/09 19:50:38;;;;;;;10.97;7.40;;;;;;;-0.16;33.92;100743.50;10489427;28;20239;-74
2024/01/09 19:55:40;;;;;;;12.97;8.40;;;;;;;0.31;33.39;100641.53;10488035;28;20222;-73
2024/01/09 20:00:42;;;;;;;7.87;5.93;;;;;;;0.09;33.42;100690.22;10484046;28;20240;-72
2024/01/09 20:05:44;;;;;;;9.73;7.47;;;;;;;-0.15;33.27;100760.94;10485314;28;20612;-75
2024/01/09 20:10:46;;;;;;;22.37;12.10;;;;;;;-0.38;33.81;100645.72;10490879;28;20537;-72
2024/01/09 20:15:48;;;;;;;49.03;27.33;;;;;;;-0.50;33.52;100697.28;10480842;28;20785;-73
2024/01/09 20:20:49;;;;;;;16.60;11.90;;;;;;;1.01;33.34;100393.63;10484956;28;20235;-73
2024/01/09 20:25:51;;;;;;;12.27;9.17;;;;;;;0.19;33.58;100616.81;10490499;28;20546;-76
2024/01/09 20:30:53;;;;;;;9.53;8.03;;;;;;;1.17;33.08;100411.84;10487392;28;20308;-73
2024/01/09 20:35:54;;;;;;;10.20;6.70;;;;;;;0.96;32.75;100563.56;10491790;28;20329;-74
2024/01/09 20:40:59;;;;;;;10.10;6.97;;;;;;;0.61;32.85;100649.25;10485453;28;20619;-74
2024/01/09 20:46:01;;;;;;;14.93;7.17;;;;;;;0.49;33.43;100569.25;10485796;28;20312;-75
2024/01/09 20:51:06;;;;;;;8.27;6.73;;;;;;;-0.07;34.20;100616.63;10482475;28;20531;-75
2024/01/09 20:56:08;;;;;;;9.13;7.13;;;;;;;-0.58;33.55;100859.88;10473391;28;20226;-73
2024/01/09 21:01:10;;;;;;;12.00;9.00;;;;;;;0.06;34.18;100523.78;10489407;28;20236;-77
2024/01/09 21:06:12;;;;;;;9.47;7.77;;;;;;;0.11;33.71;100650.66;10492714;28;20717;-76
2024/01/09 21:11:14;;;;;;;11.17;7.30;;;;;;;-0.19;33.83;100662.13;10498507;28;20238;-74
2024/01/09 21:16:17;;;;;;;11.43;7.43;;;;;;;0.18;33.81;100516.88;10452601;28;20324;-75
2024/01/09 21:21:19;;;;;;;10.23;7.53;;;;;;;-0.60;34.17;100654.88;10458037;28;20346;-74
2024/01/09 21:26:20;;;;;;;12.53;8.37;;;;;;;-1.45;35.48;100733.19;10448680;28;20229;-74
2024/01/09 21:31:23;;;;;;;11.90;8.40;;;;;;;-0.93;35.59;100529.78;10456194;28;20262;-73
2024/01/09 21:36:25;;;;;;;7.57;6.60;;;;;;;-1.96;35.74;100795.38;10438586;28;20262;-74
2024/01/09 21:41:27;;;;;;;11.83;7.83;;;;;;;-1.58;35.40;100735.66;10457148;28;20257;-74
2024/01/09 21:46:29;;;;;;;10.80;6.73;;;;;;;-0.90;34.75;100613.69;10444615;28;20242;-74
2024/01/09 21:51:30;;;;;;;9.83;7.33;;;;;;;-0.63;34.86;100513.09;10444201;28;20722;-74
2024/01/09 21:56:32;;;;;;;9.57;7.83;;;;;;;0.07;34.19;100399.13;10445100;28;20236;-74
2024/01/09 22:01:34;;;;;;;11.27;8.53;;;;;;;-0.48;34.75;100512.19;10445828;28;20278;-74
2024/01/09 22:06:44;;;;;;;10.13;7.80;;;;;;;-0.64;35.17;100503.50;10444687;28;20244;-74
2024/01/09 22:11:47;;;;;;;10.97;7.60;;;;;;;-0.64;34.65;100517.53;10449796;28;20325;-74
2024/01/09 22:16:49;;;;;;;11.97;7.93;;;;;;;-1.10;35.51;100606.94;10451655;28;20234;-74
2024/01/09 22:21:51;;;;;;;11.43;8.00;;;;;;;-0.36;34.84;100441.38;10424947;28;20227;-74
2024/01/09 22:26:52;;;;;;;11.47;7.43;;;;;;;-0.09;34.68;100371.19;10442433;28;20638;-74
2024/01/09 22:31:56;;;;;;;12.13;8.03;;;;;;;-0.71;34.80;100531.13;10449183;28;20635;-74
2024/01/09 22:36:58;;;;;;;11.97;8.37;;;;;;;-0.35;35.01;100433.38;10453476;28;20222;-73
2024/01/09 22:41:59;;;;;;;11.03;8.47;;;;;;;-0.44;35.15;100440.03;10447593;28;20240;-74
2024/01/09 22:47:01;;;;;;;11.37;7.90;;;;;;;-0.91;34.99;100611.97;10429547;28;20234;-74
2024/01/09 22:52:03;;;;;;;9.17;7.23;;;;;;;0.59;34.21;100310.50;10442218;28;20683;-74
2024/01/09 22:57:06;;;;;;;13.70;8.77;;;;;;;-0.51;35.44;100559.69;10440533;28;20656;-74
2024/01/09 23:02:08;;;;;;;10.30;7.57;;;;;;;0.09;34.98;100411.25;10443996;28;20238;-74
2024/01/09 23:07:10;;;;;;;9.60;6.43;;;;;;;-1.80;36.40;100762.19;10424282;28;20230;-74